Time;durP1;ratioP1;P1;durP2;ratioP2;P2;SDS_P1;SDS_P2;PMS_P1;PMS_P2;Temp;Humidity;BMP_temperature;BMP_pressure;BME280_temperature;BME280_humidity;BME280_pressure;Samples;Min_cycle;Max_cycle;Signal;HPM_P1;HPM_P2
2023/09/18 00:00:55;;;;;;;12.32;8.55;;;;;;;;;;5055729;28;20029;-79
2023/09/18 00:03:24;;;;;;;11.77;7.82;;;;;;;;;;5059384;28;20395;-78
2023/09/18 00:05:51;;;;;;;15.25;8.85;;;;;;;;;;5076884;28;20029;-79
2023/09/18 00:08:19;;;;;;;12.95;8.50;;;;;;;;;;5058750;28;20048;-79
2023/09/18 00:10:53;;;;;;;10.90;7.97;;;;;;;;;;5059444;28;20036;-78
2023/09/18 00:13:20;;;;;;;13.85;8.68;;;;;;;;;;5039455;28;20068;-80
2023/09/18 00:15:48;;;;;;;10.15;7.97;;;;;;;;;;5056529;28;20526;-79
2023/09/18 00:18:15;;;;;;;9.95;8.38;;;;;;;;;;5056074;28;20086;-80
2023/09/18 00:20:41;;;;;;;11.27;8.48;;;;;;;;;;5044472;28;20032;-80
2023/09/18 00:23:08;;;;;;;11.38;7.80;;;;;;;;;;5072647;28;20050;-80
2023/09/18 00:25:35;;;;;;;12.88;8.30;;;;;;;;;;5057193;28;20116;-80
2023/09/18 00:28:01;;;;;;;13.35;8.15;;;;;;;;;;5055884;28;20081;-80
2023/09/18 00:30:27;;;;;;;10.38;7.70;;;;;;;;;;5040776;28;20041;-80
2023/09/18 00:32:54;;;;;;;13.43;8.32;;;;;;;;;;5040110;28;20079;-80
2023/09/18 00:35:22;;;;;;;10.57;7.50;;;;;;;;;;5055554;28;20037;-79
2023/09/18 00:37:48;;;;;;;10.10;7.38;;;;;;;;;;5072166;28;20048;-80
2023/09/18 00:40:15;;;;;;;12.02;8.57;;;;;;;;;;5072059;28;20037;-80
2023/09/18 00:42:41;;;;;;;11.30;7.88;;;;;;;;;;5059923;28;20536;-81
2023/09/18 00:45:09;;;;;;;9.98;8.00;;;;;;;;;;5055123;28;20088;-78
2023/09/18 00:47:36;;;;;;;11.90;7.53;;;;;;;;;;5072896;28;20036;-80
2023/09/18 00:50:03;;;;;;;11.35;8.02;;;;;;;;;;5038737;28;20434;-79
2023/09/18 00:52:29;;;;;;;11.45;7.40;;;;;;;;;;5044426;28;20032;-80
2023/09/18 00:54:56;;;;;;;14.38;7.72;;;;;;;;;;5053847;28;20366;-81
2023/09/18 00:57:22;;;;;;;11.63;8.23;;;;;;;;;;5027161;28;20021;-80
2023/09/18 00:59:48;;;;;;;15.77;8.43;;;;;;;;;;5055070;28;20025;-80
2023/09/18 01:02:15;;;;;;;13.95;8.20;;;;;;;;;;5038017;28;20522;-78
2023/09/18 01:04:44;;;;;;;11.43;8.88;;;;;;;;;;5053912;28;20028;-80
2023/09/18 01:07:10;;;;;;;10.32;7.70;;;;;;;;;;5072685;28;20484;-80
2023/09/18 01:09:36;;;;;;;10.18;7.93;;;;;;;;;;5056367;28;20029;-80
2023/09/18 01:12:12;;;;;;;11.48;8.10;;;;;;;;;;5071022;28;20049;-80
2023/09/18 01:14:38;;;;;;;;;;;;;;;;;;5088131;28;20037;-78
2023/09/18 01:17:05;;;;;;;;;;;;;;;;;;5056050;28;21364;-79
2023/09/18 01:19:38;;;;;;;10.52;8.15;;;;;;;;;;5088150;28;20419;-80
2023/09/18 01:22:08;;;;;;;8.57;6.72;;;;;;;;;;5044509;28;20048;-78
2023/09/18 01:24:35;;;;;;;11.80;7.13;;;;;;;;;;5055967;28;20090;-80
2023/09/18 01:27:03;;;;;;;10.70;7.60;;;;;;;;;;5045051;28;20496;-79
2023/09/18 01:29:30;;;;;;;10.85;6.85;;;;;;;;;;5055590;28;20499;-78
2023/09/18 01:31:57;;;;;;;9.07;7.40;;;;;;;;;;5040102;28;20068;-80
2023/09/18 01:34:28;;;;;;;10.20;6.88;;;;;;;;;;5054609;28;20082;-79
2023/09/18 01:36:56;;;;;;;9.80;7.03;;;;;;;;;;5042720;28;20093;-81
2023/09/18 01:39:22;;;;;;;9.23;6.75;;;;;;;;;;5039556;28;20029;-80
2023/09/18 01:41:48;;;;;;;9.32;6.60;;;;;;;;;;5056193;28;20105;-79
2023/09/18 01:44:15;;;;;;;8.45;6.45;;;;;;;;;;5057562;28;20067;-79
2023/09/18 01:46:41;;;;;;;10.75;6.40;;;;;;;;;;5053126;28;20539;-80
2023/09/18 01:49:08;;;;;;;11.18;7.10;;;;;;;;;;5054642;28;20029;-81
2023/09/18 01:51:34;;;;;;;11.95;6.90;;;;;;;;;;5038551;28;20475;-82
2023/09/18 01:54:01;;;;;;;11.43;6.82;;;;;;;;;;5054799;28;20047;-81
2023/09/18 01:56:27;;;;;;;13.65;6.72;;;;;;;;;;5055861;28;20037;-79
2023/09/18 01:58:53;;;;;;;10.48;6.95;;;;;;;;;;5054211;28;20033;-79
2023/09/18 02:01:20;;;;;;;9.38;6.85;;;;;;;;;;5054911;28;20033;-79
2023/09/18 02:03:47;;;;;;;9.32;6.28;;;;;;;;;;5069986;28;20073;-78
2023/09/18 02:06:13;;;;;;;8.40;6.90;;;;;;;;;;5055746;28;20025;-78
2023/09/18 02:08:39;;;;;;;9.40;6.60;;;;;;;;;;5055579;28;20067;-80
2023/09/18 02:11:06;;;;;;;10.95;6.32;;;;;;;;;;5054742;28;20064;-80
2023/09/18 02:13:32;;;;;;;7.93;5.88;;;;;;;;;;5054304;28;20043;-79
2023/09/18 02:15:58;;;;;;;9.02;6.35;;;;;;;;;;5054884;28;20048;-79
2023/09/18 02:18:25;;;;;;;9.35;6.85;;;;;;;;;;5053014;28;20024;-79
2023/09/18 02:20:51;;;;;;;8.85;6.57;;;;;;;;;;5038068;28;20044;-80
2023/09/18 02:23:18;;;;;;;9.13;6.57;;;;;;;;;;5040834;28;20063;-82
2023/09/18 02:25:45;;;;;;;9.13;6.60;;;;;;;;;;5058273;28;20124;-81
2023/09/18 02:28:11;;;;;;;9.80;6.47;;;;;;;;;;5058815;28;20567;-80
2023/09/18 02:30:37;;;;;;;10.70;6.03;;;;;;;;;;5076500;28;20048;-81
2023/09/18 02:33:04;;;;;;;8.32;5.93;;;;;;;;;;5057799;28;20028;-79
2023/09/18 02:35:31;;;;;;;8.88;6.25;;;;;;;;;;5074346;28;20036;-80
2023/09/18 02:37:57;;;;;;;9.73;6.40;;;;;;;;;;5061382;28;20111;-80
2023/09/18 02:40:23;;;;;;;8.20;5.70;;;;;;;;;;5046527;28;20037;-80
2023/09/18 02:42:49;;;;;;;8.32;6.20;;;;;;;;;;5061790;28;20464;-80
2023/09/18 02:45:16;;;;;;;8.65;5.93;;;;;;;;;;5057110;28;20094;-79
2023/09/18 02:47:42;;;;;;;6.88;5.85;;;;;;;;;;5057818;28;20024;-80
2023/09/18 02:50:10;;;;;;;9.38;5.82;;;;;;;;;;5075003;28;20036;-83
2023/09/18 02:52:37;;;;;;;10.30;6.75;;;;;;;;;;5056779;28;20036;-84
2023/09/18 02:55:03;;;;;;;7.82;6.32;;;;;;;;;;5056900;28;20082;-83
2023/09/18 02:57:30;;;;;;;8.73;6.47;;;;;;;;;;5059150;28;20038;-84
2023/09/18 02:59:57;;;;;;;8.35;6.38;;;;;;;;;;5046184;28;20491;-83
2023/09/18 03:02:23;;;;;;;8.70;6.38;;;;;;;;;;5057900;28;20074;-84
2023/09/18 03:04:50;;;;;;;11.00;6.38;;;;;;;;;;5064448;28;20032;-83
2023/09/18 03:07:16;;;;;;;9.80;6.82;;;;;;;;;;5064958;28;20040;-84
2023/09/18 03:09:43;;;;;;;10.13;6.15;;;;;;;;;;5041205;28;20029;-83
2023/09/18 03:12:09;;;;;;;7.72;6.30;;;;;;;;;;5077885;28;20045;-80
2023/09/18 03:14:35;;;;;;;10.27;6.32;;;;;;;;;;5044502;28;20029;-82
2023/09/18 03:17:02;;;;;;;9.20;6.30;;;;;;;;;;5040075;28;20037;-81
2023/09/18 03:19:28;;;;;;;10.38;7.00;;;;;;;;;;5028642;28;20060;-82
2023/09/18 03:21:54;;;;;;;8.10;5.78;;;;;;;;;;5057089;28;20029;-83
2023/09/18 03:24:21;;;;;;;9.75;6.85;;;;;;;;;;5039819;28;20062;-82
2023/09/18 03:26:49;;;;;;;8.75;6.55;;;;;;;;;;5044183;28;20413;-89
2023/09/18 03:29:15;;;;;;;8.32;6.20;;;;;;;;;;5059716;28;20028;-80
2023/09/18 03:31:42;;;;;;;10.25;6.50;;;;;;;;;;5055796;28;20028;-80
2023/09/18 03:34:08;;;;;;;8.45;6.18;;;;;;;;;;5022735;28;20393;-80
2023/09/18 03:36:37;;;;;;;7.55;5.53;;;;;;;;;;5042957;28;20045;-80
2023/09/18 03:39:04;;;;;;;8.00;5.90;;;;;;;;;;5057510;28;20028;-81
2023/09/18 03:41:33;;;;;;;7.47;5.43;;;;;;;;;;5055378;28;20037;-79
2023/09/18 03:44:01;;;;;;;8.77;5.88;;;;;;;;;;5073288;28;20033;-79
2023/09/18 03:46:27;;;;;;;7.55;5.75;;;;;;;;;;5054730;28;20056;-80
2023/09/18 03:48:54;;;;;;;7.50;5.25;;;;;;;;;;5071006;28;20036;-80
2023/09/18 03:51:21;;;;;;;6.78;5.70;;;;;;;;;;5053504;28;20037;-81
2023/09/18 03:53:48;;;;;;;6.57;4.95;;;;;;;;;;5047456;28;20043;-80
2023/09/18 03:56:15;;;;;;;6.55;5.38;;;;;;;;;;5045916;28;20041;-79
2023/09/18 03:58:41;;;;;;;7.50;5.28;;;;;;;;;;5054882;28;20056;-80
2023/09/18 04:01:08;;;;;;;6.93;5.57;;;;;;;;;;5055639;28;20040;-81
2023/09/18 04:03:35;;;;;;;7.85;5.07;;;;;;;;;;5055786;28;20029;-84
2023/09/18 04:06:03;;;;;;;6.75;5.32;;;;;;;;;;5047199;28;20029;-86
2023/09/18 04:08:29;;;;;;;6.95;5.15;;;;;;;;;;5061757;28;20032;-82
2023/09/18 04:10:57;;;;;;;6.57;5.70;;;;;;;;;;5061180;28;20041;-81
2023/09/18 04:13:24;;;;;;;7.35;5.60;;;;;;;;;;5042082;28;20130;-79
2023/09/18 04:15:56;;;;;;;7.90;5.63;;;;;;;;;;5038834;28;20578;-80
2023/09/18 04:18:23;;;;;;;7.18;5.60;;;;;;;;;;5054833;28;20275;-78
2023/09/18 04:20:51;;;;;;;7.28;5.50;;;;;;;;;;5072748;28;20029;-81
2023/09/18 04:23:25;;;;;;;8.02;5.30;;;;;;;;;;5053756;28;20029;-80
2023/09/18 04:25:52;;;;;;;6.95;5.47;;;;;;;;;;5038969;28;20035;-80
2023/09/18 04:28:19;;;;;;;7.65;5.15;;;;;;;;;;5041376;28;20120;-81
2023/09/18 04:30:46;;;;;;;6.88;5.15;;;;;;;;;;5027298;28;20039;-79
2023/09/18 04:33:16;;;;;;;6.18;5.20;;;;;;;;;;5037417;28;20832;-80
2023/09/18 04:35:44;;;;;;;8.82;4.78;;;;;;;;;;5054582;28;20052;-78
2023/09/18 04:38:10;;;;;;;6.72;5.60;;;;;;;;;;5042775;28;20125;-82
2023/09/18 04:40:38;;;;;;;6.68;5.25;;;;;;;;;;5042226;28;20036;-79
2023/09/18 04:43:04;;;;;;;8.95;5.78;;;;;;;;;;5054050;28;20083;-79
2023/09/18 04:45:31;;;;;;;7.13;5.20;;;;;;;;;;5054762;28;20500;-79
2023/09/18 04:47:58;;;;;;;7.15;5.30;;;;;;;;;;5054174;28;20043;-79
2023/09/18 04:50:26;;;;;;;7.38;5.40;;;;;;;;;;5054901;28;20068;-79
2023/09/18 04:52:54;;;;;;;7.60;5.10;;;;;;;;;;5039705;28;20033;-80
2023/09/18 04:55:21;;;;;;;7.05;5.30;;;;;;;;;;5072346;28;20037;-86
2023/09/18 04:57:48;;;;;;;8.07;5.53;;;;;;;;;;5073171;28;20446;-83
2023/09/18 05:00:15;;;;;;;6.35;5.53;;;;;;;;;;5054878;28;20332;-85
2023/09/18 05:02:41;;;;;;;11.85;5.57;;;;;;;;;;5049654;28;20120;-85
2023/09/18 05:05:08;;;;;;;9.05;5.78;;;;;;;;;;5039386;28;20036;-85
2023/09/18 05:07:35;;;;;;;6.68;5.10;;;;;;;;;;5047265;28;20033;-85
2023/09/18 05:10:04;;;;;;;8.80;5.25;;;;;;;;;;5037529;28;20032;-83
2023/09/18 05:12:30;;;;;;;6.75;5.28;;;;;;;;;;5053824;28;20092;-85
2023/09/18 05:14:58;;;;;;;15.57;10.52;;;;;;;;;;5043190;28;20032;-84
2023/09/18 05:17:40;;;;;;;18.50;14.02;;;;;;;;;;5038981;28;20051;-86
2023/09/18 05:20:07;;;;;;;18.67;13.82;;;;;;;;;;5030256;28;20082;-84
2023/09/18 05:22:33;;;;;;;16.92;12.50;;;;;;;;;;5039937;28;20411;-85
2023/09/18 05:25:00;;;;;;;18.38;12.93;;;;;;;;;;5038715;28;20056;-85
2023/09/18 05:27:26;;;;;;;15.57;11.30;;;;;;;;;;5044700;28;20028;-83
2023/09/18 05:29:52;;;;;;;15.68;10.68;;;;;;;;;;5021046;28;20030;-86
2023/09/18 05:32:20;;;;;;;11.40;8.73;;;;;;;;;;5038312;28;20432;-86
2023/09/18 05:34:45;;;;;;;12.05;8.38;;;18.50;99.90;;;;;;5074193;28;20035;-82
2023/09/18 05:37:13;;;;;;;8.65;7.10;;;;;;;;;;5039310;28;20041;-85
2023/09/18 05:39:40;;;;;;;9.55;7.25;;;18.60;99.90;;;;;;5028117;28;20037;-85
2023/09/18 05:42:06;;;;;;;9.07;6.53;;;18.70;99.90;;;;;;5026665;28;20060;-86
2023/09/18 05:44:34;;;;;;;13.23;6.63;;;19.00;99.70;;;;;;5054864;28;20196;-81
2023/09/18 05:47:03;;;;;;;8.30;6.20;;;18.80;93.00;;;;;;5055810;28;20037;-77
2023/09/18 05:49:30;;;;;;;11.80;5.50;;;19.00;91.50;;;;;;5042757;28;20078;-83
2023/09/18 05:51:56;;;;;;;8.15;5.10;;;19.10;99.90;;;;;;5055272;28;20041;-83
2023/09/18 05:54:22;;;;;;;8.57;5.75;;;19.30;98.00;;;;;;5035884;28;20078;-80
2023/09/18 05:56:47;;;;;;;10.68;5.72;;;19.50;97.10;;;;;;5059321;28;20028;-79
2023/09/18 05:59:15;;;;;;;11.38;5.47;;;19.60;96.50;;;;;;5057765;28;20032;-79
2023/09/18 06:01:41;;;;;;;10.05;5.05;;;19.80;95.90;;;;;;5056718;28;20033;-80
2023/09/18 06:04:10;;;;;;;7.55;5.45;;;20.10;99.90;;;;;;5060653;28;20059;-80
2023/09/18 06:06:39;;;;;;;10.75;5.45;;;;;;;;;;5058111;28;20128;-80
2023/09/18 06:09:07;;;;;;;6.88;5.28;;;;;;;;;;5041870;28;20098;-81
2023/09/18 06:11:33;;;;;;;7.25;5.15;;;20.20;99.90;;;;;;5059397;28;20056;-81
2023/09/18 06:13:59;;;;;;;7.60;5.20;;;20.50;99.90;;;;;;5059867;28;20389;-78
2023/09/18 06:16:25;;;;;;;7.97;5.00;;;20.60;98.90;;;;;;5040055;28;20044;-81
2023/09/18 06:18:51;;;;;;;8.98;5.10;;;20.80;96.80;;;;;;5057589;28;20037;-80
2023/09/18 06:21:17;;;;;;;6.00;4.65;;;20.90;97.70;;;;;;5074542;28;20043;-80
2023/09/18 06:23:43;;;;;;;7.13;4.95;;;21.00;97.10;;;;;;5060227;28;20052;-80
2023/09/18 06:26:09;;;;;;;7.18;5.10;;;21.10;96.10;;;;;;5062786;28;20060;-81
2023/09/18 06:28:35;;;;;;;6.50;4.80;;;21.20;95.80;;;;;;5057612;28;20061;-79
2023/09/18 06:31:01;;;;;;;5.55;4.90;;;21.30;95.70;;;;;;5041931;28;20788;-77
2023/09/18 06:33:27;;;;;;;5.47;4.80;;;21.40;95.70;;;;;;5085037;28;20036;-81
2023/09/18 06:35:53;;;;;;;7.90;5.20;;;21.50;95.30;;;;;;5058771;28;20033;-81
2023/09/18 06:38:20;;;;;;;8.75;4.90;;;21.60;96.30;;;;;;5059040;28;20127;-80
2023/09/18 06:40:47;;;;;;;6.13;4.70;;;21.70;99.00;;;;;;5058372;28;20078;-80
2023/09/18 06:43:12;;;;;;;6.50;4.70;;;21.80;99.00;;;;;;5058881;28;20029;-80
2023/09/18 06:45:39;;;;;;;7.00;4.75;;;21.90;96.90;;;;;;5058294;28;20594;-80
2023/09/18 06:48:05;;;;;;;5.30;4.72;;;22.00;96.90;;;;;;5060221;28;20415;-79
2023/09/18 06:50:31;;;;;;;6.60;4.75;;;22.10;96.20;;;;;;5064278;28;20105;-79
2023/09/18 06:52:57;;;;;;;7.07;4.95;;;22.00;96.00;;;;;;5059030;28;20143;-79
2023/09/18 06:55:23;;;;;;;6.07;4.75;;;22.00;93.60;;;;;;5065032;28;20037;-77
2023/09/18 06:57:51;;;;;;;6.93;4.55;;;;;;;;;;5029866;28;20522;-83
2023/09/18 07:00:20;;;;;;;6.00;4.78;;;;;;;;;;5057070;28;20085;-83
2023/09/18 07:02:47;;;;;;;9.88;4.65;;;;;;;;;;5059330;28;20038;-83
2023/09/18 07:05:13;;;;;;;6.00;4.38;;;;;;;;;;5057494;28;20424;-83
2023/09/18 07:07:40;;;;;;;5.55;4.43;;;;;;;;;;5058791;28;20033;-83
2023/09/18 07:10:06;;;;;;;8.02;4.55;;;;;;;;;;5055407;28;20028;-83
2023/09/18 07:12:32;;;;;;;4.95;4.28;;;;;;;;;;5058475;28;20041;-82
2023/09/18 07:15:04;;;;;;;5.85;4.35;;;;;;;;;;5058935;28;20039;-82
2023/09/18 07:17:30;;;;;;;5.20;4.22;;;;;;;;;;5061252;28;20033;-81
2023/09/18 07:19:56;;;;;;;5.32;4.63;;;;;;;;;;5056758;28;20037;-81
2023/09/18 07:22:23;;;;;;;8.07;4.78;;;;;;;;;;5028447;28;20040;-82
2023/09/18 07:24:49;;;;;;;6.63;4.80;;;;;;;;;;5062367;28;20040;-82
2023/09/18 07:27:15;;;;;;;6.13;4.85;;;;;;;;;;5061731;28;20427;-83
2023/09/18 07:29:41;;;;;;;8.43;4.88;;;;;;;;;;5043343;28;20044;-83
2023/09/18 07:32:09;;;;;;;5.32;4.65;;;;;;;;;;5056451;28;20033;-83
2023/09/18 07:34:35;;;;;;;9.05;4.30;;;;;;;;;;5072264;28;20377;-83
2023/09/18 07:37:02;;;;;;;6.55;4.63;;;;;;;;;;5039901;28;20184;-81
2023/09/18 07:39:28;;;;;;;7.50;4.65;;;;;;;;;;5030275;28;20097;-82
2023/09/18 07:41:55;;;;;;;8.93;4.97;;;;;;;;;;5056077;28;20064;-83
2023/09/18 07:44:22;;;;;;;7.28;4.95;;;;;;;;;;5056641;28;20064;-86
2023/09/18 07:46:48;;;;;;;9.25;5.57;;;;;;;;;;5073728;28;20526;-88
2023/09/18 07:49:15;;;;;;;12.50;8.00;;;;;;;;;;5055222;28;20563;-86
2023/09/18 07:51:41;;;;;;;7.50;6.15;;;;;;;;;;5056867;28;20041;-86
2023/09/18 07:54:07;;;;;;;8.98;5.93;;;;;;;;;;5046721;28;20032;-87
2023/09/18 07:56:36;;;;;;;9.43;6.43;;;;;;;;;;5040156;28;20041;-83
2023/09/18 07:59:02;;;;;;;14.98;6.93;;;;;;;;;;5060848;28;20138;-88
2023/09/18 08:01:31;;;;;;;10.07;6.47;;;;;;;;;;5044979;28;20029;-83
2023/09/18 08:03:59;;;;;;;7.97;5.72;;;;;;;;;;5042791;28;20085;-83
2023/09/18 08:06:26;;;;;;;7.70;5.30;;;;;;;;;;5073318;28;20040;-80
2023/09/18 08:08:53;;;;;;;6.07;4.97;;;;;;;;;;5040690;28;20037;-80
2023/09/18 08:11:19;;;;;;;6.53;5.28;;;;;;;;;;5055969;28;20040;-80
2023/09/18 08:13:45;;;;;;;8.40;5.10;;;;;;;;;;5054869;28;20056;-80
2023/09/18 08:16:13;;;;;;;5.60;4.85;;;;;;;;;;5055502;28;20044;-81
2023/09/18 08:18:41;;;;;;;11.07;5.18;;;;;;;;;;5056282;28;20060;-80
2023/09/18 08:21:09;;;;;;;10.75;5.20;;;;;;;;;;5055829;28;20027;-79
2023/09/18 08:23:36;;;;;;;7.68;5.38;;;;;;;;;;5039337;28;20055;-82
2023/09/18 08:26:03;;;;;;;7.30;5.13;;;;;;;;;;5071105;28;20045;-79
2023/09/18 08:28:30;;;;;;;8.80;5.97;;;;;;;;;;5055828;28;20056;-79
2023/09/18 08:30:58;;;;;;;8.27;5.65;;;;;;;;;;5056222;28;20044;-80
2023/09/18 08:33:25;;;;;;;7.00;5.30;;;;;;;;;;5042852;28;20503;-80
2023/09/18 08:35:52;;;;;;;10.50;5.35;;;;;;;;;;5056124;28;20125;-80
2023/09/18 08:38:18;;;;;;;7.97;5.50;;;;;;;;;;5054875;28;20530;-81
2023/09/18 08:40:44;;;;;;;6.82;5.43;;;;;;;;;;5054995;28;20083;-80
2023/09/18 08:43:12;;;;;;;7.38;5.05;;;;;;;;;;5057088;28;20033;-80
2023/09/18 08:45:44;;;;;;;7.18;5.70;;;;;;;;;;5054894;28;20033;-79
2023/09/18 08:48:10;;;;;;;8.80;5.68;;;;;;;;;;5076609;28;20499;-79
2023/09/18 08:50:37;;;;;;;7.43;5.00;;;;;;;;;;5056423;28;20120;-80
2023/09/18 08:53:04;;;;;;;10.15;6.05;;;;;;;;;;5053577;28;20036;-80
2023/09/18 08:55:32;;;;;;;11.45;5.85;;;;;;;;;;5057954;28;20503;-81
2023/09/18 08:57:59;;;;;;;10.25;6.07;;;;;;;;;;5056116;28;20033;-80
2023/09/18 09:00:26;;;;;;;9.57;6.47;;;;;;;;;;5055464;28;20115;-80
2023/09/18 09:02:54;;;;;;;7.82;6.00;;;;;;;;;;5055558;28;20109;-81
2023/09/18 09:05:21;;;;;;;8.65;5.20;;;;;;;;;;5060080;28;20039;-81
2023/09/18 09:07:49;;;;;;;7.35;5.57;;;;;;;;;;5057307;28;20074;-80
2023/09/18 09:10:15;;;;;;;10.63;5.82;;;;;;;;;;5055102;28;20037;-81
2023/09/18 09:12:55;;;;;;;6.10;5.35;;;;;;;;;;5054553;28;20119;-80
2023/09/18 09:15:23;;;;;;;7.57;5.05;;;;;;;;;;5056285;28;20080;-80
2023/09/18 09:17:50;;;;;;;6.85;5.70;;;;;;;;;;5071622;28;20033;-80
2023/09/18 09:20:18;;;;;;;5.30;4.80;;;;;;;;;;5054659;28;20511;-81
2023/09/18 09:22:44;;;;;;;6.45;5.30;;;;;;;;;;5058171;28;20064;-82
2023/09/18 09:25:25;;;;;;;7.03;5.68;;;;;;;;;;5056687;28;20460;-78
2023/09/18 09:27:53;;;;;;;7.05;5.50;;;;;;;;;;5056334;28;20060;-80
2023/09/18 09:30:21;;;;;;;9.07;5.80;;;;;;;;;;5071421;28;20037;-80
2023/09/18 09:32:50;;;;;;;20.50;16.23;;;;;;;;;;5057539;28;20039;-81
2023/09/18 09:35:27;;;;;;;16.55;13.60;;;;;;;;;;5059204;28;20550;-80
2023/09/18 09:38:15;;;;;;;12.27;10.75;;;;;;;;;;5058323;28;20129;-80
2023/09/18 09:40:42;;;;;;;13.07;9.70;;;;;;;;;;5059916;28;20039;-82
2023/09/18 09:43:11;;;;;;;11.68;8.25;;;;;;;;;;5059363;28;20029;-79
2023/09/18 09:45:38;;;;;;;9.45;7.55;;;;;;;;;;5075211;28;20035;-91
2023/09/18 09:48:06;;;;;;;7.97;7.05;;;;;;;;;;5057963;28;20055;-81
2023/09/18 09:50:32;;;;;;;10.15;6.72;;;;;;;;;;5058823;28;20061;-82
2023/09/18 09:52:59;;;;;;;8.57;6.65;;;;;;;;;;5060064;28;20063;-83
2023/09/18 09:55:33;;;;;;;9.75;6.93;;;;;;;;;;5058674;28;20433;-81
2023/09/18 09:58:01;;;;;;;10.93;7.13;;;;;;;;;;5058814;28;20029;-82
2023/09/18 10:00:42;;;;;;;10.10;7.25;;;;;;;;;;5058917;28;20124;-78
2023/09/18 10:03:09;;;;;;;11.65;7.22;;;;;;;;;;5059086;28;20028;-84
2023/09/18 10:05:37;;;;;;;8.63;6.88;;;;;;;;;;5058519;28;20466;-83
2023/09/18 10:08:09;;;;;;;12.18;7.57;;;;;;;;;;5056140;28;20047;-80
2023/09/18 10:10:38;;;;;;;8.75;6.70;;;;;;;;;;5044559;28;20040;-83
2023/09/18 10:13:07;;;;;;;9.45;7.10;;;;;;;;;;5060610;28;20528;-79
2023/09/18 10:15:38;;;;;;;11.52;7.65;;;;;;;;;;5060219;28;20044;-82
2023/09/18 10:18:11;;;;;;;12.73;7.18;;;;;;;;;;5059516;28;20513;-85
2023/09/18 10:20:43;;;;;;;9.57;7.07;;;;;;;;;;5060002;28;20564;-85
2023/09/18 10:23:20;;;;;;;9.40;6.88;;;;;;;;;;5060145;28;20043;-82
2023/09/18 10:25:48;;;;;;;9.52;6.45;;;;;;;;;;5056324;28;20055;-83
2023/09/18 10:28:15;;;;;;;8.63;6.53;;;;;;;;;;5060326;28;20601;-84
2023/09/18 10:30:42;;;;;;;9.43;6.60;;;;;;;;;;5059018;28;20036;-83
2023/09/18 10:33:09;;;;;;;9.27;6.30;;;;;;;;;;5058665;28;20056;-85
2023/09/18 10:35:36;;;;;;;10.95;6.78;;;;;;;;;;5058899;28;20036;-85
2023/09/18 10:38:03;;;;;;;6.38;5.38;;;;;;;;;;5058638;28;20037;-83
2023/09/18 10:40:31;;;;;;;8.98;6.47;;;;;;;;;;5057326;28;20487;-84
2023/09/18 10:42:58;;;;;;;8.82;5.95;;;;;;;;;;5048903;28;20043;-84
2023/09/18 10:45:26;;;;;;;7.68;5.45;;;;;;;;;;5071788;28;20033;-86
2023/09/18 10:47:53;;;;;;;6.70;6.00;;;;;;;;;;5059018;28;20052;-86
2023/09/18 10:50:26;;;;;;;6.43;5.70;;;;;;;;;;5058028;28;20423;-84
2023/09/18 10:52:53;;;;;;;6.68;5.38;;;;;;;;;;5058907;28;20035;-85
2023/09/18 10:55:19;;;;;;;6.93;4.88;;;;;;;;;;5045365;28;20077;-84
2023/09/18 10:58:04;;;;;;;6.35;5.10;;;;;;;;;;5058209;28;20063;-80
2023/09/18 11:00:31;;;;;;;6.43;5.20;;;;;;;;;;5061464;28;20044;-83
2023/09/18 11:03:14;;;;;;;8.35;5.85;;;;;;;;;;5061206;28;20035;-81
2023/09/18 11:05:40;;;;;;;7.93;5.72;;;;;;;;;;5061970;28;20048;-84
2023/09/18 11:08:26;;;;;;;7.80;5.97;;;;;;;;;;5042127;28;20045;-82
2023/09/18 11:10:56;;;;;;;6.32;5.30;;;;;;;;;;5063497;28;20040;-84
2023/09/18 11:13:29;;;;;;;7.63;5.50;;;;;;;;;;5058068;28;20128;-82
2023/09/18 11:16:00;;;;;;;8.63;5.63;;;;;;;;;;5075776;28;20052;-84
2023/09/18 11:18:33;;;;;;;8.57;6.05;;;;;;;;;;5055631;28;20036;-83
2023/09/18 11:21:09;;;;;;;8.00;6.03;;;;;;;;;;5073481;28;20077;-84
2023/09/18 11:23:45;;;;;;;7.00;5.85;;;;;;;;;;5057278;28;20052;-80
2023/09/18 11:26:12;;;;;;;8.90;6.35;;;;;;;;;;5040948;28;20127;-84
2023/09/18 11:28:38;;;;;;;8.10;6.35;;;;;;;;;;5057627;28;20036;-83
2023/09/18 11:31:05;;;;;;;8.20;6.30;;;;;;;;;;5056910;28;20057;-83
2023/09/18 11:33:31;;;;;;;9.15;6.65;;;;;;;;;;5058107;28;20213;-82
2023/09/18 11:35:58;;;;;;;8.57;7.13;;;;;;;;;;5056742;28;20184;-83
2023/09/18 11:38:25;;;;;;;8.65;6.47;;;;;;;;;;5057181;28;20033;-84
2023/09/18 11:40:52;;;;;;;9.73;7.00;;;;;;;;;;5057967;28;20526;-85
2023/09/18 11:43:26;;;;;;;8.52;6.97;;;;;;;;;;5057355;28;20035;-85
2023/09/18 11:45:56;;;;;;;10.57;7.00;;;;;;;;;;5059522;28;20372;-86
2023/09/18 11:48:29;;;;;;;11.95;7.07;;;;;;;;;;5039093;28;20044;-80
2023/09/18 11:50:56;;;;;;;9.50;7.43;;;;;;;;;;5056599;28;20110;-83
2023/09/18 11:53:23;;;;;;;8.82;7.25;;;;;;;;;;5058204;28;20523;-82
2023/09/18 11:55:50;;;;;;;9.27;7.03;;;;;;;;;;5058558;28;20048;-84
2023/09/18 11:58:16;;;;;;;8.45;6.85;;;;;;;;;;5056055;28;20037;-82
2023/09/18 12:00:46;;;;;;;10.50;7.50;;;;;;;;;;5072863;28;20494;-81
2023/09/18 12:03:24;;;;;;;9.18;6.95;;;;;;;;;;5055716;28;20028;-85
2023/09/18 12:05:57;;;;;;;10.85;7.88;;;;;;;;;;5075640;28;20028;-83
2023/09/18 12:08:26;;;;;;;9.23;7.15;;;;;;;;;;5071829;28;20036;-82
2023/09/18 12:10:53;;;;;;;9.45;8.00;;;;;;;;;;5061108;28;20121;-85
2023/09/18 12:13:19;;;;;;;8.55;7.65;;;;;;;;;;5056748;28;20529;-86
2023/09/18 12:15:46;;;;;;;10.07;7.40;;;;;;;;;;5056393;28;20037;-84
2023/09/18 12:18:14;;;;;;;10.13;7.80;;;;;;;;;;5072450;28;20544;-84
2023/09/18 12:20:48;;;;;;;9.93;8.07;;;;;;;;;;5055338;28;20520;-84
2023/09/18 12:23:14;;;;;;;10.15;7.88;;;;;;;;;;5072397;28;20087;-84
2023/09/18 12:25:41;;;;;;;7.72;6.88;;;;;;;;;;5057242;28;20052;-84
2023/09/18 12:28:08;;;;;;;9.05;7.40;;;;;;;;;;5044509;28;20048;-84
2023/09/18 12:30:34;;;;;;;8.55;7.30;;;;;;;;;;5055609;28;20040;-84
2023/09/18 12:33:01;;;;;;;9.45;7.47;;;;;;;;;;5058262;28;20070;-83
2023/09/18 12:35:29;;;;;;;9.00;7.35;;;;;;;;;;5074833;28;20033;-84
2023/09/18 12:37:56;;;;;;;8.65;7.68;;;;;;;;;;5055660;28;20515;-84
2023/09/18 12:40:26;;;;;;;8.55;7.65;;;;;;;;;;5056165;28;20076;-83
2023/09/18 12:42:54;;;;;;;9.30;8.40;;;;;;;;;;5057778;28;20028;-84
2023/09/18 12:45:21;;;;;;;10.70;7.88;;;;;;;;;;5026300;28;20028;-85
2023/09/18 12:47:47;;;;;;;9.60;7.43;;;;;;;;;;5054894;28;20028;-84
2023/09/18 12:50:14;;;;;;;8.85;7.15;;;;;;;;;;5054007;28;20056;-86
2023/09/18 12:52:41;;;;;;;8.80;7.72;;;;;;;;;;5055623;28;20544;-85
2023/09/18 12:55:08;;;;;;;8.70;7.32;;;;;;;;;;5060080;28;20496;-84
2023/09/18 12:57:34;;;;;;;7.88;7.07;;;;;;;;;;5057108;28;20047;-84
2023/09/18 13:00:10;;;;;;;10.45;7.70;;;;;;;;;;5055522;28;20491;-85
2023/09/18 13:02:37;;;;;;;9.07;7.50;;;;;;;;;;5070542;28;20037;-83
2023/09/18 13:05:03;;;;;;;8.40;7.00;;;;;;;;;;5054740;28;20036;-80
2023/09/18 13:07:32;;;;;;;7.13;6.38;;;;;;;;;;5056223;28;20098;-86
2023/09/18 13:10:02;;;;;;;7.63;6.85;;;;;;;;;;5054927;28;20037;-83
2023/09/18 13:12:43;;;;;;;10.02;7.38;;;;;;;;;;5055890;28;20148;-83
2023/09/18 13:15:11;;;;;;;8.60;6.75;;;;;;;;;;5057044;28;20076;-82
2023/09/18 13:17:43;;;;;;;7.53;6.65;;;;;;;;;;5054269;28;20031;-82
2023/09/18 13:20:24;;;;;;;8.00;6.47;;;;;;;;;;5055306;28;20059;-85
2023/09/18 13:22:51;;;;;;;6.82;6.07;;;;;;;;;;5054947;28;20147;-85
2023/09/18 13:25:22;;;;;;;9.30;6.80;;;;;;;;;;5057910;28;20558;-85
2023/09/18 13:27:49;;;;;;;9.38;6.57;;;;;;;;;;5070407;28;20026;-84
2023/09/18 13:30:17;;;;;;;6.90;6.07;;;;;;;;;;5055430;28;20039;-85
2023/09/18 13:32:44;;;;;;;10.70;6.93;;;;;;;;;;5054374;28;21495;-80
2023/09/18 13:35:12;;;;;;;8.27;6.57;;;;;;;;;;5069960;28;20037;-85
2023/09/18 13:37:39;;;;;;;9.30;6.32;;;;;;;;;;5046261;28;20063;-84
2023/09/18 13:40:08;;;;;;;7.93;6.32;;;;;;;;;;5055360;28;20055;-84
2023/09/18 13:42:43;;;;;;;8.65;7.03;;;;;;;;;;5056685;28;20067;-83
2023/09/18 13:45:10;;;;;;;7.80;6.07;;;;;;;;;;5057998;28;20036;-83
2023/09/18 13:47:37;;;;;;;7.57;6.38;;;;;;;;;;5056291;28;20054;-83
2023/09/18 13:50:04;;;;;;;8.10;6.20;;;;;;;;;;5054540;28;20055;-81
2023/09/18 13:52:32;;;;;;;10.27;6.55;;;;;;;;;;5055176;28;20033;-84
2023/09/18 13:54:58;;;;;;;9.43;6.32;;;;;;;;;;5070752;28;20158;-81
2023/09/18 13:57:25;;;;;;;12.45;6.65;;;;;;;;;;5055323;28;20039;-83
2023/09/18 13:59:52;;;;;;;12.05;7.25;;;;;;;;;;5055855;28;20060;-84
2023/09/18 14:02:18;;;;;;;7.65;5.80;;;;;;;;;;5056847;28;20024;-80
2023/09/18 14:04:45;;;;;;;8.57;6.18;;;;;;;;;;5057217;28;20037;-83
2023/09/18 14:07:12;;;;;;;8.32;6.43;;;;;;;;;;5052984;28;20177;-83
2023/09/18 14:09:38;;;;;;;8.57;6.28;;;;;;;;;;5054201;28;20028;-80
2023/09/18 14:12:07;;;;;;;8.50;6.65;;;;;;;;;;5053738;28;20164;-83
2023/09/18 14:14:34;;;;;;;8.60;6.03;;;;;;;;;;5069337;28;20025;-84
2023/09/18 14:17:01;;;;;;;9.32;6.75;;;;;;;;;;5053508;28;20432;-81
2023/09/18 14:19:28;;;;;;;8.60;6.25;;;;;;;;;;5057991;28;20033;-84
2023/09/18 14:21:54;;;;;;;8.90;6.20;;;;;;;;;;5060074;28;20086;-80
2023/09/18 14:24:22;;;;;;;9.45;6.95;;;;;;;;;;5058329;28;20031;-88
2023/09/18 14:26:48;;;;;;;8.63;6.70;;;;;;;;;;5059963;28;20036;-81
2023/09/18 14:29:15;;;;;;;9.15;6.07;;;;;;;;;;5058608;28;20411;-84
2023/09/18 14:31:42;;;;;;;11.15;7.22;;;;;;;;;;5058775;28;20091;-79